createdAt,value
2023-02-25T00:02:14.023Z,94873.94
2023-02-25T00:04:42.319Z,94865.97
2023-02-25T00:07:10.156Z,94860.06
2023-02-25T00:09:39.117Z,94871.34
2023-02-25T00:12:07.072Z,94872.69
2023-02-25T00:14:34.587Z,94855.91
2023-02-25T00:17:02.091Z,94876.06
2023-02-25T00:19:29.590Z,94873.00
2023-02-25T00:21:57.118Z,94875.25
2023-02-25T00:24:24.908Z,94866.53
2023-02-25T00:26:53.755Z,94882.06
2023-02-25T00:29:22.073Z,94845.19
2023-02-25T00:31:49.705Z,94888.78
2023-02-25T00:34:18.052Z,94880.63
2023-02-25T00:36:45.644Z,94880.72
2023-02-25T00:39:13.203Z,94887.22
2023-02-25T00:41:40.711Z,94863.03
2023-02-25T00:44:09.518Z,94892.25
2023-02-25T00:46:37.140Z,94880.72
2023-02-25T00:49:04.682Z,94866.41
2023-02-25T00:51:33.966Z,94885.72
2023-02-25T00:54:01.517Z,94888.88
2023-02-25T00:56:29.006Z,94893.88
2023-02-25T00:58:56.454Z,94875.44
2023-02-25T01:01:27.546Z,94878.56
2023-02-25T01:03:56.745Z,94871.63
2023-02-25T01:06:25.660Z,94874.31
2023-02-25T01:08:53.495Z,94876.44
2023-02-25T01:11:27.573Z,94874.09
2023-02-25T01:13:56.572Z,94855.41
2023-02-25T01:16:27.732Z,94854.03
2023-02-25T01:18:57.819Z,94889.06
2023-02-25T01:21:27.510Z,94879.00
2023-02-25T01:23:58.896Z,94880.59
2023-02-25T01:26:26.980Z,94865.16
2023-02-25T01:28:55.725Z,94882.22
2023-02-25T01:31:29.237Z,94876.97
2023-02-25T01:33:58.575Z,94839.94
2023-02-25T01:36:26.366Z,94861.00
2023-02-25T01:38:53.984Z,94863.22
2023-02-25T01:41:21.505Z,94869.13
2023-02-25T01:44:04.407Z,94867.81
2023-02-25T01:46:33.781Z,94871.94
2023-02-25T01:49:02.302Z,94867.97
2023-02-25T01:51:31.196Z,94879.06
2023-02-25T01:53:59.579Z,94879.28
2023-02-25T01:56:28.278Z,94830.50
2023-02-25T01:58:56.546Z,94864.31
2023-02-25T02:01:27.763Z,94883.97
2023-02-25T02:03:57.003Z,94885.22
2023-02-25T02:06:28.297Z,94858.59
2023-02-25T02:08:56.052Z,94884.78
2023-02-25T02:11:23.644Z,94873.56
2023-02-25T02:13:54.961Z,94885.78
2023-02-25T02:16:37.078Z,94862.47
2023-02-25T02:19:22.407Z,94867.88
2023-02-25T02:22:05.461Z,94866.09
2023-02-25T02:25:08.408Z,94881.28
2023-02-25T02:27:56.028Z,94885.66
2023-02-25T02:30:39.647Z,94873.81
2023-02-25T02:33:14.853Z,94862.41
2023-02-25T02:35:50.763Z,94875.00
2023-02-25T02:38:28.648Z,94892.13
2023-02-25T02:41:04.874Z,94894.13
2023-02-25T02:43:39.929Z,94876.00
2023-02-25T02:46:14.248Z,94875.88
2023-02-25T02:48:48.190Z,94871.75
2023-02-25T02:51:22.303Z,94880.03
2023-02-25T02:53:54.633Z,94873.69
2023-02-25T02:56:26.023Z,94824.22
2023-02-25T02:58:58.472Z,94885.97
2023-02-25T03:01:29.871Z,94886.16
2023-02-25T03:04:03.645Z,94884.81
2023-02-25T03:06:35.019Z,94895.66
2023-02-25T03:09:06.917Z,94875.41
2023-02-25T03:11:34.543Z,94906.50
2023-02-25T03:14:02.222Z,94891.53
2023-02-25T03:16:35.930Z,94887.28
2023-02-25T03:19:12.032Z,94887.16
2023-02-25T03:21:42.714Z,94889.38
2023-02-25T03:24:16.732Z,94883.47
2023-02-25T03:26:44.207Z,94889.38
2023-02-25T03:29:17.547Z,94903.69
2023-02-25T03:31:51.412Z,94893.97
2023-02-25T03:34:24.473Z,94897.22
2023-02-25T03:36:56.923Z,94899.78
2023-02-25T03:39:28.979Z,94872.44
2023-02-25T03:42:01.639Z,94888.97
2023-02-25T03:44:35.771Z,94897.88
2023-02-25T03:47:05.452Z,94893.28
2023-02-25T03:49:37.747Z,94899.66
2023-02-25T03:52:11.799Z,94892.72
2023-02-25T03:54:39.262Z,94897.09
2023-02-25T03:57:06.924Z,94902.66
2023-02-25T03:59:34.494Z,94909.56
2023-02-25T04:02:02.972Z,94902.44
2023-02-25T04:04:30.493Z,94880.16
2023-02-25T04:06:59.383Z,94896.72
2023-02-25T04:09:27.000Z,94899.09
2023-02-25T04:11:56.915Z,94892.97
2023-02-25T04:14:24.755Z,94888.81
2023-02-25T04:16:52.246Z,94890.38
2023-02-25T04:19:19.803Z,94896.41
2023-02-25T04:21:47.387Z,94904.09
2023-02-25T04:24:16.710Z,94897.03
2023-02-25T04:26:44.440Z,94908.81
2023-02-25T04:29:12.036Z,94911.81
2023-02-25T04:31:39.783Z,94889.84
2023-02-25T04:34:07.557Z,94886.00
2023-02-25T04:36:36.996Z,94912.66
2023-02-25T04:39:06.377Z,94915.38
2023-02-25T04:41:36.662Z,94922.19
2023-02-25T04:44:05.529Z,94920.63
2023-02-25T04:46:34.473Z,94912.38
2023-02-25T04:49:02.437Z,94921.41
2023-02-25T04:51:30.098Z,94917.69
2023-02-25T04:53:57.586Z,94920.28
2023-02-25T04:56:25.375Z,94913.38
2023-02-25T04:58:54.646Z,94881.41
2023-02-25T05:01:22.176Z,94933.63
2023-02-25T05:03:49.742Z,94925.94
2023-02-25T05:06:17.217Z,94923.78
2023-02-25T05:08:44.671Z,94907.75
2023-02-25T05:11:12.144Z,94910.53
2023-02-25T05:13:39.592Z,94880.97
2023-02-25T05:16:11.534Z,94917.31
2023-02-25T05:18:40.070Z,94921.78
2023-02-25T05:21:12.114Z,94892.56
2023-02-25T05:23:39.721Z,94881.19
2023-02-25T05:26:07.860Z,94906.25
2023-02-25T05:28:35.751Z,94885.09
2023-02-25T05:31:06.073Z,94888.44
2023-02-25T05:33:35.176Z,94923.94
2023-02-25T05:36:02.647Z,94920.13
2023-02-25T05:38:30.120Z,94909.53
2023-02-25T05:41:00.174Z,94917.38
2023-02-25T05:43:27.609Z,94924.06
2023-02-25T05:45:55.449Z,94907.69
2023-02-25T05:48:23.951Z,94927.25
2023-02-25T05:50:53.255Z,94923.03
2023-02-25T05:53:20.898Z,94926.59
2023-02-25T05:55:48.313Z,94916.66
2023-02-25T05:58:15.780Z,94918.66
2023-02-25T06:00:43.613Z,94931.50
2023-02-25T06:03:11.544Z,94923.22
2023-02-25T06:05:41.716Z,94921.09
2023-02-25T06:08:11.278Z,94895.81
2023-02-25T06:10:40.239Z,94885.53
2023-02-25T06:13:08.412Z,94934.19
2023-02-25T06:15:38.213Z,94928.34
2023-02-25T06:18:06.384Z,94931.34
2023-02-25T06:20:35.111Z,94930.72
2023-02-25T06:23:03.248Z,94932.72
2023-02-25T06:25:32.114Z,94940.75
2023-02-25T06:28:00.057Z,94934.44
2023-02-25T06:30:28.404Z,94942.13
2023-02-25T06:32:56.046Z,94944.47
2023-02-25T06:35:24.131Z,94914.53
2023-02-25T06:37:55.175Z,94958.31
2023-02-25T06:40:22.622Z,94955.16
2023-02-25T06:42:51.545Z,94931.22
2023-02-25T06:45:19.417Z,94967.66
2023-02-25T06:47:46.855Z,94975.13
2023-02-25T06:50:14.317Z,94977.84
2023-02-25T06:52:41.799Z,94974.94
2023-02-25T06:55:10.653Z,94974.38
2023-02-25T06:57:38.143Z,94985.19
2023-02-25T07:00:09.384Z,94982.97
2023-02-25T07:02:36.825Z,94977.41
2023-02-25T07:05:05.450Z,94975.28
2023-02-25T07:07:33.337Z,94976.28
2023-02-25T07:10:00.776Z,94981.41
2023-02-25T07:12:28.195Z,94988.09
2023-02-25T07:14:55.597Z,94999.28
2023-02-25T07:17:24.360Z,94997.53
2023-02-25T07:19:51.769Z,95001.84
2023-02-25T07:22:19.843Z,94997.38
2023-02-25T07:24:47.446Z,94987.34
2023-02-25T07:27:15.121Z,95000.72
2023-02-25T07:29:42.827Z,95000.94
2023-02-25T07:32:10.408Z,94997.59
2023-02-25T07:34:39.301Z,95007.00
2023-02-25T07:37:06.774Z,95003.66
2023-02-25T07:39:34.183Z,95008.72
2023-02-25T07:42:01.616Z,95021.34
2023-02-25T07:44:29.028Z,95011.69
2023-02-25T07:46:56.432Z,95024.91
2023-02-25T07:49:23.849Z,95020.34
2023-02-25T07:51:52.599Z,95018.78
2023-02-25T07:54:21.137Z,95017.41
2023-02-25T07:56:51.289Z,95014.97
2023-02-25T07:59:18.841Z,95010.41
2023-02-25T08:01:46.563Z,95017.25
2023-02-25T08:04:14.054Z,95016.13
2023-02-25T08:06:42.360Z,95013.56
2023-02-25T08:09:12.162Z,95026.41
2023-02-25T08:11:40.556Z,95027.97
2023-02-25T08:14:08.225Z,95019.25
2023-02-25T08:16:35.775Z,95023.19
2023-02-25T08:19:03.740Z,95030.09
2023-02-25T08:21:31.737Z,95034.25
2023-02-25T08:24:00.258Z,95026.91
2023-02-25T08:26:29.045Z,95037.19
2023-02-25T08:28:57.410Z,95031.03
2023-02-25T08:31:25.565Z,95033.63
2023-02-25T08:33:53.700Z,95010.63
2023-02-25T08:36:24.082Z,95044.88
2023-02-25T08:38:52.655Z,95024.97
2023-02-25T08:41:22.689Z,95015.75
2023-02-25T08:43:54.388Z,95030.44
2023-02-25T08:46:22.536Z,95002.53
2023-02-25T08:48:51.085Z,95016.94
2023-02-25T08:51:19.283Z,95015.34
2023-02-25T08:53:46.760Z,95013.16
2023-02-25T08:56:16.184Z,95011.03
2023-02-25T08:58:44.468Z,95015.34
2023-02-25T09:01:15.983Z,95013.09
2023-02-25T09:03:51.095Z,95018.16
2023-02-25T09:06:19.358Z,95004.81
2023-02-25T09:08:46.858Z,95028.31
2023-02-25T09:11:14.628Z,95023.81
2023-02-25T09:13:42.094Z,95018.31
2023-02-25T09:16:10.031Z,95025.03
2023-02-25T09:18:38.858Z,95023.38
2023-02-25T09:21:06.604Z,95022.72
2023-02-25T09:23:34.237Z,95029.22
2023-02-25T09:26:03.855Z,95044.44
2023-02-25T09:28:31.638Z,95030.91
2023-02-25T09:30:59.461Z,95027.31
2023-02-25T09:33:27.231Z,95007.81
2023-02-25T09:35:56.161Z,95033.88
2023-02-25T09:38:23.594Z,95032.44
2023-02-25T09:40:51.379Z,95028.88
2023-02-25T09:43:26.089Z,95019.03
2023-02-25T09:45:55.454Z,95014.72
2023-02-25T09:48:27.963Z,95021.44
2023-02-25T09:51:03.829Z,95025.38
2023-02-25T09:53:35.634Z,95022.34
2023-02-25T09:56:07.207Z,95017.22
2023-02-25T09:58:37.985Z,95018.34
2023-02-25T10:01:07.822Z,95048.44
2023-02-25T10:03:50.279Z,95049.34
2023-02-25T10:06:26.227Z,95033.16
2023-02-25T10:09:04.423Z,95052.28
2023-02-25T10:11:43.660Z,95032.31
2023-02-25T10:14:28.607Z,95057.22
2023-02-25T10:17:04.073Z,95054.09
2023-02-25T10:19:52.568Z,95067.63
2023-02-25T10:22:35.654Z,95068.19
2023-02-25T10:25:11.841Z,95067.28
2023-02-25T10:27:43.313Z,95078.81
2023-02-25T10:30:17.742Z,95076.84
2023-02-25T10:32:46.262Z,95044.94
2023-02-25T10:35:18.114Z,95063.00
2023-02-25T10:37:47.344Z,95067.88
2023-02-25T10:40:17.664Z,95083.13
2023-02-25T10:42:48.959Z,95076.91
2023-02-25T10:45:23.132Z,95078.19
2023-02-25T10:47:59.229Z,95079.88
2023-02-25T10:50:45.420Z,95089.66
2023-02-25T10:53:18.190Z,95075.00
2023-02-25T10:55:52.655Z,95070.84
2023-02-25T10:58:27.776Z,95077.00
2023-02-25T11:00:59.907Z,95077.53
2023-02-25T11:03:31.384Z,95086.72
2023-02-25T11:06:11.575Z,95080.16
2023-02-25T11:08:40.865Z,95074.53
2023-02-25T11:11:16.526Z,95055.53
2023-02-25T11:13:44.348Z,95079.06
2023-02-25T11:16:14.683Z,95071.22
2023-02-25T11:18:42.714Z,95083.78
2023-02-25T11:21:12.998Z,95091.13
2023-02-25T11:23:48.718Z,95076.88
2023-02-25T11:26:19.052Z,95075.63
2023-02-25T11:28:50.002Z,95081.97
2023-02-25T11:31:20.616Z,95084.16
2023-02-25T11:33:52.631Z,95074.19
2023-02-25T11:36:24.939Z,95081.28
2023-02-25T11:39:14.610Z,95063.94
2023-02-25T11:41:43.565Z,95066.41
2023-02-25T11:44:30.246Z,95063.25
2023-02-25T11:47:02.256Z,95071.31
2023-02-25T11:49:53.665Z,95063.00
2023-02-25T11:52:30.126Z,95059.78
2023-02-25T11:55:12.552Z,95053.84
2023-02-25T11:57:49.172Z,95053.97
2023-02-25T12:00:25.404Z,95042.09
2023-02-25T12:03:13.295Z,95026.69
2023-02-25T12:05:52.664Z,95049.81
2023-02-25T12:08:45.213Z,95080.50
2023-02-25T12:11:48.209Z,95089.31
2023-02-25T12:15:09.384Z,95097.28
2023-02-25T12:17:58.202Z,95090.19
2023-02-25T12:21:10.661Z,95098.03
2023-02-25T12:24:13.776Z,95094.81
2023-02-25T12:26:59.741Z,95100.97
2023-02-25T12:29:47.389Z,95113.31
2023-02-25T12:32:29.339Z,95114.97
2023-02-25T12:35:25.533Z,95112.66
2023-02-25T12:38:23.656Z,95109.47
2023-02-25T12:41:07.818Z,95121.72
2023-02-25T12:43:45.580Z,95114.13
2023-02-25T12:46:27.904Z,95118.81
2023-02-25T12:49:19.872Z,95116.44
2023-02-25T12:52:18.967Z,95122.66
2023-02-25T12:55:10.481Z,95098.22
2023-02-25T12:57:49.724Z,95108.22
2023-02-25T13:00:29.850Z,95114.28
2023-02-25T13:03:15.323Z,95108.72
2023-02-25T13:06:07.536Z,95110.16
2023-02-25T13:09:07.799Z,95110.00
2023-02-25T13:12:10.631Z,95110.91
2023-02-25T13:14:50.676Z,95115.22
2023-02-25T13:18:03.712Z,95119.25
2023-02-25T13:20:44.507Z,95120.91
2023-02-25T13:23:34.643Z,95132.38
2023-02-25T13:26:25.788Z,95127.19
2023-02-25T13:29:06.602Z,95125.13
2023-02-25T13:31:44.598Z,95098.44
2023-02-25T13:34:24.264Z,95126.41
2023-02-25T13:37:19.954Z,95113.66
2023-02-25T13:40:05.830Z,95121.38
2023-02-25T13:42:58.626Z,95115.25
2023-02-25T13:45:39.583Z,95122.66
2023-02-25T13:48:28.022Z,95119.44
2023-02-25T13:51:12.765Z,95108.91
2023-02-25T13:54:08.720Z,95103.47
2023-02-25T13:57:05.963Z,95116.22
2023-02-25T13:59:58.965Z,95119.16
2023-02-25T14:02:55.721Z,95102.22
2023-02-25T14:05:47.275Z,95107.88
2023-02-25T14:08:29.481Z,95104.63
2023-02-25T14:11:12.248Z,95108.38
2023-02-25T14:13:59.293Z,95115.16
2023-02-25T14:16:44.726Z,95108.06
2023-02-25T14:19:31.458Z,95110.53
2023-02-25T14:22:25.248Z,95095.81
2023-02-25T14:25:03.311Z,95124.47
2023-02-25T14:27:42.402Z,95132.13
2023-02-25T14:30:24.309Z,95122.50
2023-02-25T14:33:27.984Z,95118.59
2023-02-25T14:36:19.957Z,95129.13
2023-02-25T14:39:06.467Z,95122.75
2023-02-25T14:41:47.276Z,95115.53
2023-02-25T14:44:26.244Z,95123.53
2023-02-25T14:46:58.184Z,95127.78
2023-02-25T14:49:31.143Z,95119.69
2023-02-25T14:52:34.558Z,95128.09
2023-02-25T14:55:26.273Z,95156.47
2023-02-25T14:58:27.907Z,95156.84
2023-02-25T15:01:18.973Z,95152.28
2023-02-25T15:04:21.095Z,95170.00
2023-02-25T15:07:05.915Z,95183.19
2023-02-25T15:10:15.324Z,95174.09
2023-02-25T15:13:00.402Z,95180.41
2023-02-25T15:15:58.185Z,95178.44
2023-02-25T15:19:02.333Z,95175.53
2023-02-25T15:21:38.720Z,95180.78
2023-02-25T15:24:11.193Z,95189.03
2023-02-25T15:26:46.195Z,95153.53
2023-02-25T15:29:43.395Z,95180.88
2023-02-25T15:32:21.855Z,95191.53
2023-02-25T15:34:59.245Z,95201.91
2023-02-25T15:37:35.450Z,95195.75
2023-02-25T15:40:30.214Z,95199.38
2023-02-25T15:42:58.784Z,95206.97
2023-02-25T15:45:44.517Z,95202.84
2023-02-25T15:48:36.140Z,95217.69
2023-02-25T15:51:09.092Z,95218.41
2023-02-25T15:53:44.729Z,95215.66
2023-02-25T15:56:49.357Z,95227.63
2023-02-25T15:59:45.976Z,95227.97
2023-02-25T16:02:39.793Z,95231.69
2023-02-25T16:05:18.447Z,95223.97
2023-02-25T16:07:50.757Z,95237.47
2023-02-25T16:10:25.033Z,95233.13
2023-02-25T16:12:55.322Z,95244.09
2023-02-25T16:15:28.676Z,95229.84
2023-02-25T16:17:57.957Z,95243.19
2023-02-25T16:20:31.008Z,95260.63
2023-02-25T16:23:01.078Z,95242.22
2023-02-25T16:25:39.480Z,95244.94
2023-02-25T16:28:16.766Z,95260.59
2023-02-25T16:30:53.409Z,95261.28
2023-02-25T16:33:30.448Z,95261.13
2023-02-25T16:36:07.710Z,95263.19
2023-02-25T16:38:45.626Z,95271.31
2023-02-25T16:41:14.999Z,95265.75
2023-02-25T16:43:43.725Z,95272.22
2023-02-25T16:46:14.519Z,95289.09
2023-02-25T16:48:50.077Z,95292.72
2023-02-25T16:51:25.585Z,95285.50
2023-02-25T16:53:59.106Z,95287.94
2023-02-25T16:56:29.605Z,95293.09
2023-02-25T16:59:06.878Z,95297.84
2023-02-25T17:01:37.505Z,95291.19
2023-02-25T17:04:15.241Z,95295.56
2023-02-25T17:06:43.752Z,95315.69
2023-02-25T17:09:24.768Z,95313.94
2023-02-25T17:11:56.704Z,95317.31
2023-02-25T17:14:25.631Z,95300.63
2023-02-25T17:16:53.928Z,95321.50
2023-02-25T17:19:22.805Z,95334.16
2023-02-25T17:21:54.230Z,95301.47
2023-02-25T17:24:28.340Z,95301.88
2023-02-25T17:26:56.450Z,95341.28
2023-02-25T17:29:34.610Z,95319.84
2023-02-25T17:32:13.970Z,95296.63
2023-02-25T17:34:42.857Z,95345.06
2023-02-25T17:37:13.687Z,95348.81
2023-02-25T17:39:44.124Z,95347.84
2023-02-25T17:42:33.979Z,95351.63
2023-02-25T17:45:03.093Z,95368.75
2023-02-25T17:47:32.593Z,95349.84
2023-02-25T17:50:12.276Z,95382.38
2023-02-25T17:52:40.840Z,95378.06
2023-02-25T17:55:24.181Z,95374.09
2023-02-25T17:57:54.612Z,95382.56
2023-02-25T18:00:26.012Z,95372.31
2023-02-25T18:03:16.297Z,95388.91
2023-02-25T18:05:52.766Z,95351.06
2023-02-25T18:08:22.144Z,95399.94
2023-02-25T18:10:54.859Z,95385.75
2023-02-25T18:13:28.053Z,95395.97
2023-02-25T18:16:29.222Z,95391.81
2023-02-25T18:18:57.954Z,95400.69
2023-02-25T18:21:25.688Z,95405.03
2023-02-25T18:23:55.080Z,95364.78
2023-02-25T18:26:26.451Z,95410.34
2023-02-25T18:28:58.442Z,95417.03
2023-02-25T18:31:26.501Z,95377.38
2023-02-25T18:33:55.083Z,95416.63
2023-02-25T18:36:25.608Z,95422.13
2023-02-25T18:38:55.421Z,95420.56
2023-02-25T18:41:24.549Z,95406.94
2023-02-25T18:43:54.501Z,95426.88
2023-02-25T18:46:25.478Z,95415.63
2023-02-25T18:48:53.231Z,95428.66
2023-02-25T18:51:26.561Z,95418.59
2023-02-25T18:53:57.514Z,95400.44
2023-02-25T18:56:26.677Z,95367.50
2023-02-25T18:58:56.444Z,95432.75
2023-02-25T19:01:26.667Z,95395.66
2023-02-25T19:03:59.317Z,95460.31
2023-02-25T19:06:27.949Z,95430.53
2023-02-25T19:08:55.742Z,95455.56
2023-02-25T19:11:27.646Z,95467.56
2023-02-25T19:13:55.557Z,95457.13
2023-02-25T19:16:25.131Z,95408.22
2023-02-25T19:18:53.128Z,95426.75
2023-02-25T19:21:22.250Z,95426.34
2023-02-25T19:23:52.069Z,95412.84
2023-02-25T19:26:20.225Z,95434.63
2023-02-25T19:28:49.393Z,95470.34
2023-02-25T19:31:17.758Z,95441.09
2023-02-25T19:33:45.803Z,95452.91
2023-02-25T19:36:15.611Z,95447.25
2023-02-25T19:38:43.210Z,95448.56
2023-02-25T19:41:13.225Z,95494.97
2023-02-25T19:43:41.064Z,95496.94
2023-02-25T19:46:11.776Z,95502.63
2023-02-25T19:48:39.389Z,95491.38
2023-02-25T19:51:07.878Z,95454.75
2023-02-25T19:53:35.847Z,95500.63
2023-02-25T19:56:05.344Z,95513.59
2023-02-25T19:58:33.300Z,95514.34
2023-02-25T20:01:05.582Z,95484.47
2023-02-25T20:03:34.756Z,95519.81
2023-02-25T20:06:06.707Z,95523.72
2023-02-25T20:08:36.380Z,95517.56
2023-02-25T20:11:04.246Z,95524.66
2023-02-25T20:13:34.988Z,95532.91
2023-02-25T20:16:03.228Z,95506.75
2023-02-25T20:18:30.962Z,95494.13
2023-02-25T20:20:59.971Z,95490.00
2023-02-25T20:23:27.557Z,95536.72
2023-02-25T20:26:03.838Z,95531.38
2023-02-25T20:28:31.530Z,95534.69
2023-02-25T20:31:05.008Z,95534.66
2023-02-25T20:33:33.065Z,95545.13
2023-02-25T20:36:04.668Z,95550.56
2023-02-25T20:38:36.897Z,95546.00
2023-02-25T20:41:04.869Z,95544.06
2023-02-25T20:43:32.642Z,95536.78
2023-02-25T20:46:00.604Z,95556.97
2023-02-25T20:48:30.555Z,95561.44
2023-02-25T20:51:02.292Z,95565.19
2023-02-25T20:53:32.415Z,95564.59
2023-02-25T20:56:00.326Z,95573.84
2023-02-25T20:58:30.701Z,95546.47
2023-02-25T21:00:58.613Z,95543.47
2023-02-25T21:03:26.481Z,95574.13
2023-02-25T21:05:54.147Z,95548.94
2023-02-25T21:08:21.882Z,95570.44
2023-02-25T21:10:50.852Z,95559.72
2023-02-25T21:13:18.612Z,95596.28
2023-02-25T21:15:46.391Z,95586.06
2023-02-25T21:18:14.061Z,95592.69
2023-02-25T21:20:41.621Z,95596.63
2023-02-25T21:23:11.303Z,95598.41
2023-02-25T21:25:39.080Z,95595.63
2023-02-25T21:28:08.245Z,95604.06
2023-02-25T21:30:35.899Z,95541.97
2023-02-25T21:33:03.603Z,95592.19
2023-02-25T21:35:31.199Z,95587.97
2023-02-25T21:37:58.694Z,95607.28
2023-02-25T21:40:26.263Z,95601.88
2023-02-25T21:42:55.329Z,95612.03
2023-02-25T21:45:26.988Z,95612.09
2023-02-25T21:47:54.613Z,95566.75
2023-02-25T21:50:22.138Z,95586.97
2023-02-25T21:52:49.712Z,95575.66
2023-02-25T21:55:18.919Z,95614.34
2023-02-25T21:57:46.671Z,95568.28
2023-02-25T22:00:15.398Z,95593.41
2023-02-25T22:02:44.331Z,95620.69
2023-02-25T22:05:12.267Z,95622.19
2023-02-25T22:07:39.988Z,95596.94
2023-02-25T22:10:08.814Z,95616.38
2023-02-25T22:12:36.490Z,95611.06
2023-02-25T22:15:04.658Z,95620.56
2023-02-25T22:17:32.283Z,95610.44
2023-02-25T22:20:01.177Z,95609.81
2023-02-25T22:22:28.902Z,95618.38
2023-02-25T22:24:56.845Z,95578.78
2023-02-25T22:27:24.733Z,95623.03
2023-02-25T22:29:52.360Z,95620.50
2023-02-25T22:32:20.384Z,95616.63
2023-02-25T22:34:47.919Z,95621.63
2023-02-25T22:37:16.929Z,95576.41
2023-02-25T22:39:44.471Z,95620.56
2023-02-25T22:42:12.107Z,95538.56
2023-02-25T22:44:39.693Z,95596.53
2023-02-25T22:47:07.142Z,95629.28
2023-02-25T22:49:34.639Z,95635.56
2023-02-25T22:52:02.219Z,95629.63
2023-02-25T22:54:31.022Z,95626.72
2023-02-25T22:56:58.506Z,95630.59
2023-02-25T22:59:25.969Z,95594.53
2023-02-25T23:01:53.489Z,95629.72
2023-02-25T23:04:21.025Z,95627.16
2023-02-25T23:06:50.525Z,95640.19
2023-02-25T23:09:18.153Z,95640.81
2023-02-25T23:11:47.013Z,95607.38
2023-02-25T23:14:15.123Z,95630.25
2023-02-25T23:16:44.999Z,95627.59
2023-02-25T23:19:16.113Z,95628.41
2023-02-25T23:21:44.178Z,95631.66
2023-02-25T23:24:15.968Z,95628.75
2023-02-25T23:26:44.258Z,95638.44
2023-02-25T23:29:13.487Z,95635.00
2023-02-25T23:31:44.625Z,95619.78
2023-02-25T23:34:13.766Z,95632.53
2023-02-25T23:36:45.372Z,95628.31
2023-02-25T23:39:15.312Z,95614.25
2023-02-25T23:41:43.510Z,95615.38
2023-02-25T23:44:13.525Z,95631.66
2023-02-25T23:46:43.098Z,95586.16
2023-02-25T23:49:10.649Z,95626.72
2023-02-25T23:51:38.227Z,95628.13
2023-02-25T23:54:07.016Z,95592.91
2023-02-25T23:56:35.266Z,95591.34
2023-02-25T23:59:04.092Z,95640.78
